sensor_id;sensor_type;location;lat;lon;timestamp;pressure;altitude;pressure_sealevel;temperature;humidity
76201;BME280;64981;52.930;9.266;2023-07-13T00:02:23;100986.72;;;16.51;72.95
76201;BME280;64981;52.930;9.266;2023-07-13T00:04:49;101007.69;;;16.54;72.71
76201;BME280;64981;52.930;9.266;2023-07-13T00:07:16;100995.75;;;16.50;72.68
76201;BME280;64981;52.930;9.266;2023-07-13T00:09:46;100992.25;;;16.49;72.56
76201;BME280;64981;52.930;9.266;2023-07-13T00:12:29;100998.75;;;16.40;73.18
76201;BME280;64981;52.930;9.266;2023-07-13T00:14:57;100998.13;;;16.38;73.17
76201;BME280;64981;52.930;9.266;2023-07-13T00:17:23;101002.19;;;16.34;73.50
76201;BME280;64981;52.930;9.266;2023-07-13T00:19:49;101004.63;;;16.36;73.41
76201;BME280;64981;52.930;9.266;2023-07-13T00:22:14;101000.53;;;16.33;73.56
76201;BME280;64981;52.930;9.266;2023-07-13T00:24:40;101009.34;;;16.34;73.21
76201;BME280;64981;52.930;9.266;2023-07-13T00:27:09;101002.75;;;16.30;73.37
76201;BME280;64981;52.930;9.266;2023-07-13T00:29:35;101003.72;;;16.22;73.63
76201;BME280;64981;52.930;9.266;2023-07-13T00:32:03;101007.00;;;16.24;73.49
76201;BME280;64981;52.930;9.266;2023-07-13T00:34:29;101019.78;;;16.29;73.39
76201;BME280;64981;52.930;9.266;2023-07-13T00:36:54;101006.63;;;16.27;73.47
76201;BME280;64981;52.930;9.266;2023-07-13T00:39:20;101015.59;;;16.20;73.76
76201;BME280;64981;52.930;9.266;2023-07-13T00:41:46;101009.63;;;16.17;73.71
76201;BME280;64981;52.930;9.266;2023-07-13T00:44:15;101021.88;;;16.12;73.93
76201;BME280;64981;52.930;9.266;2023-07-13T00:46:41;101023.53;;;16.13;73.93
76201;BME280;64981;52.930;9.266;2023-07-13T00:49:12;101024.16;;;16.15;73.89
76201;BME280;64981;52.930;9.266;2023-07-13T00:51:44;101016.00;;;16.17;73.65
76201;BME280;64981;52.930;9.266;2023-07-13T00:54:18;101029.16;;;16.03;74.70
76201;BME280;64981;52.930;9.266;2023-07-13T00:56:47;101033.19;;;15.99;74.23
76201;BME280;64981;52.930;9.266;2023-07-13T00:59:16;101027.31;;;16.04;74.45
76201;BME280;64981;52.930;9.266;2023-07-13T01:01:43;101023.63;;;15.84;75.03
76201;BME280;64981;52.930;9.266;2023-07-13T01:04:09;101015.63;;;15.84;74.82
76201;BME280;64981;52.930;9.266;2023-07-13T01:06:37;101013.66;;;15.71;75.09
76201;BME280;64981;52.930;9.266;2023-07-13T01:09:04;101030.72;;;15.77;75.16
76201;BME280;64981;52.930;9.266;2023-07-13T01:11:31;101025.75;;;15.74;75.09
76201;BME280;64981;52.930;9.266;2023-07-13T01:13:57;101031.53;;;15.77;75.00
76201;BME280;64981;52.930;9.266;2023-07-13T01:16:27;101029.19;;;15.68;75.08
76201;BME280;64981;52.930;9.266;2023-07-13T01:18:56;101028.19;;;15.69;75.18
76201;BME280;64981;52.930;9.266;2023-07-13T01:21:24;101033.03;;;15.65;75.24
76201;BME280;64981;52.930;9.266;2023-07-13T01:23:49;101024.97;;;15.58;75.64
76201;BME280;64981;52.930;9.266;2023-07-13T01:26:15;101015.47;;;15.49;75.60
76201;BME280;64981;52.930;9.266;2023-07-13T01:28:41;101014.25;;;15.52;75.46
76201;BME280;64981;52.930;9.266;2023-07-13T01:31:06;101016.28;;;15.50;75.28
76201;BME280;64981;52.930;9.266;2023-07-13T01:33:33;101017.63;;;15.60;74.82
76201;BME280;64981;52.930;9.266;2023-07-13T01:35:59;101018.38;;;15.54;75.51
76201;BME280;64981;52.930;9.266;2023-07-13T01:38:25;101019.94;;;15.49;76.06
76201;BME280;64981;52.930;9.266;2023-07-13T01:40:52;101019.03;;;15.42;76.03
76201;BME280;64981;52.930;9.266;2023-07-13T01:43:19;101021.28;;;15.38;76.50
76201;BME280;64981;52.930;9.266;2023-07-13T01:45:45;101017.88;;;15.44;76.34
76201;BME280;64981;52.930;9.266;2023-07-13T01:48:12;101016.66;;;15.47;76.22
76201;BME280;64981;52.930;9.266;2023-07-13T01:50:38;101020.56;;;15.51;76.13
76201;BME280;64981;52.930;9.266;2023-07-13T01:53:04;101005.19;;;15.46;76.51
76201;BME280;64981;52.930;9.266;2023-07-13T01:55:30;101017.88;;;15.44;76.52
76201;BME280;64981;52.930;9.266;2023-07-13T01:57:57;101017.75;;;15.52;76.35
76201;BME280;64981;52.930;9.266;2023-07-13T02:00:23;101019.25;;;15.40;77.58
76201;BME280;64981;52.930;9.266;2023-07-13T02:02:50;101014.38;;;15.44;76.96
76201;BME280;64981;52.930;9.266;2023-07-13T02:05:15;101013.63;;;15.50;76.82
76201;BME280;64981;52.930;9.266;2023-07-13T02:07:42;101016.53;;;15.55;76.96
76201;BME280;64981;52.930;9.266;2023-07-13T02:10:09;101010.38;;;15.54;76.95
76201;BME280;64981;52.930;9.266;2023-07-13T02:12:36;101008.75;;;15.53;77.02
76201;BME280;64981;52.930;9.266;2023-07-13T02:15:03;100999.47;;;15.49;76.98
76201;BME280;64981;52.930;9.266;2023-07-13T02:17:29;101010.75;;;15.51;77.07
76201;BME280;64981;52.930;9.266;2023-07-13T02:19:54;101007.09;;;15.52;76.89
76201;BME280;64981;52.930;9.266;2023-07-13T02:22:20;101004.97;;;15.48;77.31
76201;BME280;64981;52.930;9.266;2023-07-13T02:24:46;101012.47;;;15.38;77.64
76201;BME280;64981;52.930;9.266;2023-07-13T02:27:12;101014.09;;;15.53;77.10
76201;BME280;64981;52.930;9.266;2023-07-13T02:29:37;101025.09;;;15.50;77.01
76201;BME280;64981;52.930;9.266;2023-07-13T02:32:03;101018.66;;;15.45;77.41
76201;BME280;64981;52.930;9.266;2023-07-13T02:34:29;101009.44;;;15.41;77.21
76201;BME280;64981;52.930;9.266;2023-07-13T02:36:54;101025.31;;;15.34;77.31
76201;BME280;64981;52.930;9.266;2023-07-13T02:39:20;101023.69;;;15.19;76.84
76201;BME280;64981;52.930;9.266;2023-07-13T02:41:45;101028.16;;;15.33;75.52
76201;BME280;64981;52.930;9.266;2023-07-13T02:44:13;101018.53;;;15.17;75.28
76201;BME280;64981;52.930;9.266;2023-07-13T02:46:39;101025.88;;;15.15;75.61
76201;BME280;64981;52.930;9.266;2023-07-13T02:49:05;101023.97;;;15.09;75.65
76201;BME280;64981;52.930;9.266;2023-07-13T02:51:31;101027.91;;;15.13;75.53
76201;BME280;64981;52.930;9.266;2023-07-13T02:54:00;101028.28;;;15.10;75.64
76201;BME280;64981;52.930;9.266;2023-07-13T02:56:29;101036.53;;;15.15;75.99
76201;BME280;64981;52.930;9.266;2023-07-13T02:58:56;101030.13;;;15.09;76.28
76201;BME280;64981;52.930;9.266;2023-07-13T03:01:22;101025.50;;;15.03;77.51
76201;BME280;64981;52.930;9.266;2023-07-13T03:03:50;101032.97;;;15.23;76.79
76201;BME280;64981;52.930;9.266;2023-07-13T03:06:17;101034.59;;;15.38;76.59
76201;BME280;64981;52.930;9.266;2023-07-13T03:08:44;101035.22;;;15.40;76.28
76201;BME280;64981;52.930;9.266;2023-07-13T03:11:14;101032.25;;;15.35;76.33
76201;BME280;64981;52.930;9.266;2023-07-13T03:13:41;101038.72;;;15.41;76.13
76201;BME280;64981;52.930;9.266;2023-07-13T03:16:10;101034.31;;;15.33;76.32
76201;BME280;64981;52.930;9.266;2023-07-13T03:18:36;101040.63;;;15.32;77.03
76201;BME280;64981;52.930;9.266;2023-07-13T03:21:02;101040.78;;;15.45;75.98
76201;BME280;64981;52.930;9.266;2023-07-13T03:23:27;101038.13;;;15.45;75.78
76201;BME280;64981;52.930;9.266;2023-07-13T03:26:03;101032.06;;;15.51;75.31
76201;BME280;64981;52.930;9.266;2023-07-13T03:28:29;101030.50;;;15.57;75.08
76201;BME280;64981;52.930;9.266;2023-07-13T03:31:01;101044.38;;;15.52;75.26
76201;BME280;64981;52.930;9.266;2023-07-13T03:33:27;101043.75;;;15.50;75.20
76201;BME280;64981;52.930;9.266;2023-07-13T03:35:52;101042.41;;;15.61;74.55
76201;BME280;64981;52.930;9.266;2023-07-13T03:38:18;101030.69;;;15.55;74.72
76201;BME280;64981;52.930;9.266;2023-07-13T03:40:43;101040.59;;;15.61;74.67
76201;BME280;64981;52.930;9.266;2023-07-13T03:43:09;101044.69;;;15.64;74.14
76201;BME280;64981;52.930;9.266;2023-07-13T03:45:34;101042.63;;;15.59;74.23
76201;BME280;64981;52.930;9.266;2023-07-13T03:48:00;101044.81;;;15.56;74.20
76201;BME280;64981;52.930;9.266;2023-07-13T03:50:25;101047.91;;;15.74;73.60
76201;BME280;64981;52.930;9.266;2023-07-13T03:52:51;101053.06;;;15.76;73.37
76201;BME280;64981;52.930;9.266;2023-07-13T03:55:17;101041.38;;;15.77;72.88
76201;BME280;64981;52.930;9.266;2023-07-13T03:57:42;101045.06;;;15.76;72.67
76201;BME280;64981;52.930;9.266;2023-07-13T04:00:08;101055.50;;;15.77;72.80
76201;BME280;64981;52.930;9.266;2023-07-13T04:02:34;101059.38;;;15.75;72.79
76201;BME280;64981;52.930;9.266;2023-07-13T04:05:01;101051.38;;;15.75;72.53
76201;BME280;64981;52.930;9.266;2023-07-13T04:07:26;101057.09;;;15.72;72.41
76201;BME280;64981;52.930;9.266;2023-07-13T04:09:52;101056.72;;;15.75;72.60
76201;BME280;64981;52.930;9.266;2023-07-13T04:12:18;101050.81;;;15.79;72.18
76201;BME280;64981;52.930;9.266;2023-07-13T04:14:44;101063.75;;;15.82;72.05
76201;BME280;64981;52.930;9.266;2023-07-13T04:17:09;101055.72;;;15.76;72.09
76201;BME280;64981;52.930;9.266;2023-07-13T04:19:35;101061.16;;;15.89;71.71
76201;BME280;64981;52.930;9.266;2023-07-13T04:22:00;101066.38;;;15.97;71.42
76201;BME280;64981;52.930;9.266;2023-07-13T04:24:26;101068.22;;;15.96;71.43
76201;BME280;64981;52.930;9.266;2023-07-13T04:26:51;101065.13;;;16.14;70.46
76201;BME280;64981;52.930;9.266;2023-07-13T04:29:17;101069.31;;;16.23;70.28
76201;BME280;64981;52.930;9.266;2023-07-13T04:31:42;101067.81;;;16.35;69.72
76201;BME280;64981;52.930;9.266;2023-07-13T04:34:08;101067.69;;;16.22;70.43
76201;BME280;64981;52.930;9.266;2023-07-13T04:36:34;101067.03;;;16.20;70.40
76201;BME280;64981;52.930;9.266;2023-07-13T04:39:02;101066.72;;;16.30;69.92
76201;BME280;64981;52.930;9.266;2023-07-13T04:41:28;101068.22;;;16.32;70.03
76201;BME280;64981;52.930;9.266;2023-07-13T04:43:54;101062.50;;;16.35;69.42
76201;BME280;64981;52.930;9.266;2023-07-13T04:46:19;101068.28;;;16.45;69.43
76201;BME280;64981;52.930;9.266;2023-07-13T04:48:46;101069.06;;;16.60;69.07
76201;BME280;64981;52.930;9.266;2023-07-13T04:51:12;101073.47;;;16.75;68.37
76201;BME280;64981;52.930;9.266;2023-07-13T04:53:37;101072.78;;;16.66;68.67
76201;BME280;64981;52.930;9.266;2023-07-13T04:56:03;101076.28;;;16.66;68.75
76201;BME280;64981;52.930;9.266;2023-07-13T04:58:30;101063.19;;;16.72;68.69
76201;BME280;64981;52.930;9.266;2023-07-13T05:01:02;101070.25;;;16.86;68.02
76201;BME280;64981;52.930;9.266;2023-07-13T05:03:28;101072.69;;;16.81;68.24
76201;BME280;64981;52.930;9.266;2023-07-13T05:05:55;101079.22;;;16.99;67.27
76201;BME280;64981;52.930;9.266;2023-07-13T05:08:21;101073.28;;;17.04;66.61
76201;BME280;64981;52.930;9.266;2023-07-13T05:10:47;101087.22;;;16.99;66.94
76201;BME280;64981;52.930;9.266;2023-07-13T05:13:12;101079.56;;;16.96;67.45
76201;BME280;64981;52.930;9.266;2023-07-13T05:15:38;101085.47;;;17.13;66.05
76201;BME280;64981;52.930;9.266;2023-07-13T05:18:03;101081.59;;;17.22;65.90
76201;BME280;64981;52.930;9.266;2023-07-13T05:20:29;101077.88;;;17.16;65.60
76201;BME280;64981;52.930;9.266;2023-07-13T05:22:55;101092.28;;;17.22;66.23
76201;BME280;64981;52.930;9.266;2023-07-13T05:25:20;101091.66;;;17.20;65.82
76201;BME280;64981;52.930;9.266;2023-07-13T05:27:46;101084.66;;;17.19;65.97
76201;BME280;64981;52.930;9.266;2023-07-13T05:30:12;101100.91;;;17.24;66.21
76201;BME280;64981;52.930;9.266;2023-07-13T05:32:38;101091.22;;;17.51;64.94
76201;BME280;64981;52.930;9.266;2023-07-13T05:35:04;101102.91;;;17.97;63.64
76201;BME280;64981;52.930;9.266;2023-07-13T05:37:30;101089.97;;;18.01;62.79
76201;BME280;64981;52.930;9.266;2023-07-13T05:39:56;101101.09;;;18.04;62.65
76201;BME280;64981;52.930;9.266;2023-07-13T05:42:21;101094.66;;;17.92;63.60
76201;BME280;64981;52.930;9.266;2023-07-13T05:44:47;101095.25;;;17.88;64.05
76201;BME280;64981;52.930;9.266;2023-07-13T05:47:12;101102.28;;;17.95;63.72
76201;BME280;64981;52.930;9.266;2023-07-13T05:49:40;101104.97;;;18.02;63.52
76201;BME280;64981;52.930;9.266;2023-07-13T05:52:06;101092.84;;;18.06;63.38
76201;BME280;64981;52.930;9.266;2023-07-13T05:54:32;101100.94;;;18.32;62.46
76201;BME280;64981;52.930;9.266;2023-07-13T05:56:57;101105.88;;;18.74;61.40
76201;BME280;64981;52.930;9.266;2023-07-13T05:59:23;101098.88;;;18.87;60.44
76201;BME280;64981;52.930;9.266;2023-07-13T06:01:49;101102.41;;;18.94;60.47
76201;BME280;64981;52.930;9.266;2023-07-13T06:04:14;101109.59;;;18.87;60.54
76201;BME280;64981;52.930;9.266;2023-07-13T06:06:40;101104.06;;;18.88;60.88
76201;BME280;64981;52.930;9.266;2023-07-13T06:09:05;101102.19;;;18.75;60.87
76201;BME280;64981;52.930;9.266;2023-07-13T06:11:31;101113.50;;;18.91;61.23
76201;BME280;64981;52.930;9.266;2023-07-13T06:13:57;101113.53;;;18.77;61.15
76201;BME280;64981;52.930;9.266;2023-07-13T06:16:23;101107.72;;;18.74;61.41
76201;BME280;64981;52.930;9.266;2023-07-13T06:18:48;101118.63;;;18.59;61.97
76201;BME280;64981;52.930;9.266;2023-07-13T06:21:17;101114.16;;;18.79;62.07
76201;BME280;64981;52.930;9.266;2023-07-13T06:23:45;101117.41;;;18.68;61.94
76201;BME280;64981;52.930;9.266;2023-07-13T06:26:13;101111.84;;;18.70;62.13
76201;BME280;64981;52.930;9.266;2023-07-13T06:28:40;101117.38;;;18.49;62.73
76201;BME280;64981;52.930;9.266;2023-07-13T06:31:08;101124.00;;;18.66;62.57
76201;BME280;64981;52.930;9.266;2023-07-13T06:33:35;101115.13;;;19.11;61.56
76201;BME280;64981;52.930;9.266;2023-07-13T06:36:03;101114.50;;;19.22;60.73
76201;BME280;64981;52.930;9.266;2023-07-13T06:38:29;101115.69;;;19.40;60.07
76201;BME280;64981;52.930;9.266;2023-07-13T06:40:55;101112.97;;;19.46;60.43
76201;BME280;64981;52.930;9.266;2023-07-13T06:43:20;101114.19;;;19.57;60.21
76201;BME280;64981;52.930;9.266;2023-07-13T06:45:48;101114.63;;;19.47;60.85
76201;BME280;64981;52.930;9.266;2023-07-13T06:48:15;101116.28;;;19.55;60.69
76201;BME280;64981;52.930;9.266;2023-07-13T06:50:42;101123.06;;;19.64;60.44
76201;BME280;64981;52.930;9.266;2023-07-13T06:53:10;101123.50;;;19.61;60.72
76201;BME280;64981;52.930;9.266;2023-07-13T06:55:36;101114.81;;;19.59;60.93
76201;BME280;64981;52.930;9.266;2023-07-13T06:58:02;101123.25;;;19.62;60.20
76201;BME280;64981;52.930;9.266;2023-07-13T07:00:28;101125.31;;;19.67;60.22
76201;BME280;64981;52.930;9.266;2023-07-13T07:02:54;101128.63;;;19.62;60.56
76201;BME280;64981;52.930;9.266;2023-07-13T07:05:19;101124.72;;;19.52;61.35
76201;BME280;64981;52.930;9.266;2023-07-13T07:07:49;101119.34;;;19.65;61.24
76201;BME280;64981;52.930;9.266;2023-07-13T07:10:15;101132.91;;;19.76;60.40
76201;BME280;64981;52.930;9.266;2023-07-13T07:12:40;101127.78;;;19.68;61.00
76201;BME280;64981;52.930;9.266;2023-07-13T07:15:06;101129.84;;;19.73;61.39
76201;BME280;64981;52.930;9.266;2023-07-13T07:17:32;101117.31;;;19.60;61.64
76201;BME280;64981;52.930;9.266;2023-07-13T07:19:57;101123.63;;;19.79;61.27
76201;BME280;64981;52.930;9.266;2023-07-13T07:22:23;101128.91;;;19.99;60.68
76201;BME280;64981;52.930;9.266;2023-07-13T07:24:51;101126.38;;;20.04;60.64
76201;BME280;64981;52.930;9.266;2023-07-13T07:27:16;101121.91;;;20.29;60.08
76201;BME280;64981;52.930;9.266;2023-07-13T07:29:42;101123.38;;;20.25;60.59
76201;BME280;64981;52.930;9.266;2023-07-13T07:32:08;101131.09;;;20.46;59.92
76201;BME280;64981;52.930;9.266;2023-07-13T07:34:33;101143.03;;;20.50;59.89
76201;BME280;64981;52.930;9.266;2023-07-13T07:37:00;101141.72;;;20.59;59.79
76201;BME280;64981;52.930;9.266;2023-07-13T07:39:26;101144.50;;;20.46;59.78
76201;BME280;64981;52.930;9.266;2023-07-13T07:41:52;101127.13;;;20.55;59.29
76201;BME280;64981;52.930;9.266;2023-07-13T07:44:18;101135.75;;;20.57;58.73
76201;BME280;64981;52.930;9.266;2023-07-13T07:46:44;101133.47;;;20.61;58.78
76201;BME280;64981;52.930;9.266;2023-07-13T07:49:09;101123.63;;;20.55;58.53
76201;BME280;64981;52.930;9.266;2023-07-13T07:51:36;101136.50;;;20.71;58.43
76201;BME280;64981;52.930;9.266;2023-07-13T07:54:02;101128.25;;;20.90;57.71
76201;BME280;64981;52.930;9.266;2023-07-13T07:56:28;101128.53;;;21.07;57.66
76201;BME280;64981;52.930;9.266;2023-07-13T07:58:53;101128.44;;;21.20;57.18
76201;BME280;64981;52.930;9.266;2023-07-13T08:01:19;101126.06;;;21.30;56.79
76201;BME280;64981;52.930;9.266;2023-07-13T08:03:45;101119.56;;;21.13;57.31
76201;BME280;64981;52.930;9.266;2023-07-13T08:06:10;101131.31;;;21.19;56.59
76201;BME280;64981;52.930;9.266;2023-07-13T08:08:36;101135.53;;;21.33;56.91
76201;BME280;64981;52.930;9.266;2023-07-13T08:11:04;101133.72;;;21.27;56.31
76201;BME280;64981;52.930;9.266;2023-07-13T08:13:30;101133.34;;;21.23;56.41
76201;BME280;64981;52.930;9.266;2023-07-13T08:15:55;101129.78;;;21.29;55.52
76201;BME280;64981;52.930;9.266;2023-07-13T08:18:21;101133.88;;;21.32;55.65
76201;BME280;64981;52.930;9.266;2023-07-13T08:20:47;101140.78;;;21.21;56.16
76201;BME280;64981;52.930;9.266;2023-07-13T08:23:12;101139.41;;;21.12;56.44
76201;BME280;64981;52.930;9.266;2023-07-13T08:25:38;101135.47;;;20.90;56.93
76201;BME280;64981;52.930;9.266;2023-07-13T08:28:04;101144.16;;;20.92;57.19
76201;BME280;64981;52.930;9.266;2023-07-13T08:30:29;101138.47;;;20.82;58.13
76201;BME280;64981;52.930;9.266;2023-07-13T08:32:55;101137.59;;;21.06;56.75
76201;BME280;64981;52.930;9.266;2023-07-13T08:35:21;101139.63;;;21.17;56.24
76201;BME280;64981;52.930;9.266;2023-07-13T08:37:46;101148.78;;;21.03;56.65
76201;BME280;64981;52.930;9.266;2023-07-13T08:40:12;101140.78;;;21.21;55.55
76201;BME280;64981;52.930;9.266;2023-07-13T08:42:44;101149.25;;;21.25;55.75
76201;BME280;64981;52.930;9.266;2023-07-13T08:45:21;101150.94;;;21.19;56.14
76201;BME280;64981;52.930;9.266;2023-07-13T08:47:54;101149.56;;;21.35;56.05
76201;BME280;64981;52.930;9.266;2023-07-13T08:50:27;101146.94;;;21.28;55.40
76201;BME280;64981;52.930;9.266;2023-07-13T08:52:56;101151.94;;;21.43;56.38
76201;BME280;64981;52.930;9.266;2023-07-13T08:55:29;101148.91;;;21.39;55.16
76201;BME280;64981;52.930;9.266;2023-07-13T08:58:03;101149.56;;;21.53;55.06
76201;BME280;64981;52.930;9.266;2023-07-13T09:00:42;101154.03;;;21.59;54.53
76201;BME280;64981;52.930;9.266;2023-07-13T09:03:20;101148.28;;;21.56;55.53
76201;BME280;64981;52.930;9.266;2023-07-13T09:05:52;101146.22;;;21.58;54.63
76201;BME280;64981;52.930;9.266;2023-07-13T09:08:44;101153.06;;;21.54;55.48
76201;BME280;64981;52.930;9.266;2023-07-13T09:11:49;101155.69;;;21.60;54.98
76201;BME280;64981;52.930;9.266;2023-07-13T09:14:34;101154.41;;;21.44;55.37
76201;BME280;64981;52.930;9.266;2023-07-13T09:17:05;101149.00;;;21.81;53.10
76201;BME280;64981;52.930;9.266;2023-07-13T09:19:35;101153.75;;;21.67;55.01
76201;BME280;64981;52.930;9.266;2023-07-13T09:22:05;101156.94;;;21.76;54.32
76201;BME280;64981;52.930;9.266;2023-07-13T09:24:41;101158.69;;;21.70;52.92
76201;BME280;64981;52.930;9.266;2023-07-13T09:27:21;101161.78;;;21.85;53.85
76201;BME280;64981;52.930;9.266;2023-07-13T09:30:31;101166.31;;;21.91;52.76
76201;BME280;64981;52.930;9.266;2023-07-13T09:32:48;101158.44;;;22.08;52.32
76201;BME280;64981;52.930;9.266;2023-07-13T09:35:21;101157.19;;;21.92;53.37
76201;BME280;64981;52.930;9.266;2023-07-13T09:37:47;101147.16;;;22.00;53.15
76201;BME280;64981;52.930;9.266;2023-07-13T09:40:24;101164.81;;;21.95;52.97
76201;BME280;64981;52.930;9.266;2023-07-13T09:42:53;101157.97;;;22.11;53.59
76201;BME280;64981;52.930;9.266;2023-07-13T09:45:29;101155.81;;;22.61;49.54
76201;BME280;64981;52.930;9.266;2023-07-13T09:48:11;101152.09;;;22.32;50.52
76201;BME280;64981;52.930;9.266;2023-07-13T09:50:39;101149.03;;;22.29;50.99
76201;BME280;64981;52.930;9.266;2023-07-13T09:53:15;101161.66;;;22.28;51.40
76201;BME280;64981;52.930;9.266;2023-07-13T09:55:43;101158.03;;;22.34;50.58
76201;BME280;64981;52.930;9.266;2023-07-13T09:58:13;101149.66;;;22.42;50.04
76201;BME280;64981;52.930;9.266;2023-07-13T10:00:41;101149.13;;;22.22;50.78
76201;BME280;64981;52.930;9.266;2023-07-13T10:03:19;101160.63;;;22.29;50.99
76201;BME280;64981;52.930;9.266;2023-07-13T10:05:48;101152.53;;;22.29;50.23
76201;BME280;64981;52.930;9.266;2023-07-13T10:08:23;101155.16;;;22.36;51.08
76201;BME280;64981;52.930;9.266;2023-07-13T10:11:00;101146.03;;;22.48;49.54
76201;BME280;64981;52.930;9.266;2023-07-13T10:13:32;101152.50;;;22.59;48.56
76201;BME280;64981;52.930;9.266;2023-07-13T10:16:00;101156.19;;;22.76;47.80
76201;BME280;64981;52.930;9.266;2023-07-13T10:18:38;101152.78;;;22.69;48.10
76201;BME280;64981;52.930;9.266;2023-07-13T10:21:18;101158.69;;;22.89;47.20
76201;BME280;64981;52.930;9.266;2023-07-13T10:23:53;101147.19;;;22.82;47.63
76201;BME280;64981;52.930;9.266;2023-07-13T10:26:26;101153.63;;;22.81;48.21
76201;BME280;64981;52.930;9.266;2023-07-13T10:28:56;101154.69;;;22.92;46.93
76201;BME280;64981;52.930;9.266;2023-07-13T10:31:23;101158.47;;;23.02;46.58
76201;BME280;64981;52.930;9.266;2023-07-13T10:33:49;101156.13;;;23.18;45.96
76201;BME280;64981;52.930;9.266;2023-07-13T10:36:29;101154.34;;;23.12;45.61
76201;BME280;64981;52.930;9.266;2023-07-13T10:39:01;101154.44;;;22.93;44.53
76201;BME280;64981;52.930;9.266;2023-07-13T10:41:32;101164.28;;;22.88;45.77
76201;BME280;64981;52.930;9.266;2023-07-13T10:44:00;101150.50;;;22.96;44.88
76201;BME280;64981;52.930;9.266;2023-07-13T10:46:28;101164.28;;;22.88;46.12
76201;BME280;64981;52.930;9.266;2023-07-13T10:49:01;101152.34;;;23.07;45.92
76201;BME280;64981;52.930;9.266;2023-07-13T10:51:30;101158.66;;;23.13;46.41
76201;BME280;64981;52.930;9.266;2023-07-13T10:57:23;101159.03;;;23.16;45.06
76201;BME280;64981;52.930;9.266;2023-07-13T11:00:14;101153.78;;;23.33;44.70
76201;BME280;64981;52.930;9.266;2023-07-13T11:02:39;101154.34;;;23.35;44.95
76201;BME280;64981;52.930;9.266;2023-07-13T11:05:26;101148.50;;;23.38;44.63
76201;BME280;64981;52.930;9.266;2023-07-13T11:10:55;101139.19;;;23.57;46.54
76201;BME280;64981;52.930;9.266;2023-07-13T11:14:13;101150.00;;;23.57;46.18
76201;BME280;64981;52.930;9.266;2023-07-13T11:16:41;101152.38;;;23.93;44.32
76201;BME280;64981;52.930;9.266;2023-07-13T11:19:28;101146.50;;;23.85;43.83
76201;BME280;64981;52.930;9.266;2023-07-13T11:22:13;101159.09;;;23.79;43.76
76201;BME280;64981;52.930;9.266;2023-07-13T11:24:59;101159.34;;;23.66;43.21
76201;BME280;64981;52.930;9.266;2023-07-13T11:27:39;101161.72;;;23.51;44.06
76201;BME280;64981;52.930;9.266;2023-07-13T11:30:13;101163.13;;;23.53;44.67
76201;BME280;64981;52.930;9.266;2023-07-13T11:32:50;101164.28;;;23.58;44.66
76201;BME280;64981;52.930;9.266;2023-07-13T11:35:23;101168.75;;;23.64;45.50
76201;BME280;64981;52.930;9.266;2023-07-13T11:37:50;101165.91;;;23.70;44.89
76201;BME280;64981;52.930;9.266;2023-07-13T11:40:16;101173.91;;;23.53;45.40
76201;BME280;64981;52.930;9.266;2023-07-13T11:42:42;101211.53;;;23.25;44.23
76201;BME280;64981;52.930;9.266;2023-07-13T11:45:23;101201.03;;;22.71;45.16
76201;BME280;64981;52.930;9.266;2023-07-13T11:47:49;101215.34;;;22.23;45.98
76201;BME280;64981;52.930;9.266;2023-07-13T11:50:20;101212.97;;;21.97;46.75
76201;BME280;64981;52.930;9.266;2023-07-13T11:52:46;101231.47;;;21.69;48.15
76201;BME280;64981;52.930;9.266;2023-07-13T11:55:22;101220.00;;;21.37;48.11
76201;BME280;64981;52.930;9.266;2023-07-13T11:57:53;101228.53;;;21.03;47.88
76201;BME280;64981;52.930;9.266;2023-07-13T12:00:25;101240.38;;;20.70;49.48
76201;BME280;64981;52.930;9.266;2023-07-13T12:02:56;101233.41;;;20.56;50.14
76201;BME280;64981;52.930;9.266;2023-07-13T12:05:22;101229.91;;;20.56;49.40
76201;BME280;64981;52.930;9.266;2023-07-13T12:07:49;101237.88;;;20.24;50.59
76201;BME280;64981;52.930;9.266;2023-07-13T12:10:28;101247.22;;;20.09;51.48
76201;BME280;64981;52.930;9.266;2023-07-13T12:13:09;101263.72;;;20.19;52.17
76201;BME280;64981;52.930;9.266;2023-07-13T12:15:40;101283.47;;;20.31;52.57
76201;BME280;64981;52.930;9.266;2023-07-13T12:18:15;101293.69;;;19.90;54.34
76201;BME280;64981;52.930;9.266;2023-07-13T12:20:41;101307.75;;;19.72;55.26
76201;BME280;64981;52.930;9.266;2023-07-13T12:23:33;101298.25;;;19.50;55.79
76201;BME280;64981;52.930;9.266;2023-07-13T12:26:03;101289.19;;;19.18;56.04
76201;BME280;64981;52.930;9.266;2023-07-13T12:28:36;101293.72;;;19.04;57.70
76201;BME280;64981;52.930;9.266;2023-07-13T12:31:06;101304.38;;;18.78;58.96
76201;BME280;64981;52.930;9.266;2023-07-13T12:33:33;101336.38;;;18.58;61.04
76201;BME280;64981;52.930;9.266;2023-07-13T12:36:02;101336.72;;;18.36;61.89
76201;BME280;64981;52.930;9.266;2023-07-13T12:38:31;101334.53;;;18.18;62.89
76201;BME280;64981;52.930;9.266;2023-07-13T12:40:57;101338.34;;;18.02;63.34
76201;BME280;64981;52.930;9.266;2023-07-13T12:43:24;101332.59;;;17.77;65.44
76201;BME280;64981;52.930;9.266;2023-07-13T12:45:57;101323.47;;;17.65;65.78
76201;BME280;64981;52.930;9.266;2023-07-13T12:48:23;101328.72;;;17.52;66.55
76201;BME280;64981;52.930;9.266;2023-07-13T12:50:49;101324.25;;;17.59;66.69
76201;BME280;64981;52.930;9.266;2023-07-13T12:53:20;101325.16;;;17.45;66.95
76201;BME280;64981;52.930;9.266;2023-07-13T12:55:54;101327.94;;;17.58;66.92
76201;BME280;64981;52.930;9.266;2023-07-13T12:58:34;101322.63;;;17.37;67.71
76201;BME280;64981;52.930;9.266;2023-07-13T13:01:02;101321.72;;;17.51;67.08
76201;BME280;64981;52.930;9.266;2023-07-13T13:03:32;101332.97;;;17.47;67.62
76201;BME280;64981;52.930;9.266;2023-07-13T13:06:01;101329.81;;;17.64;67.15